sensor_id;sensor_type;location;lat;lon;timestamp;temperature;humidity
20594;DHT22;10455;48.732;10.266;2023-01-29T00:01:19;-1.20;99.90
20594;DHT22;10455;48.732;10.266;2023-01-29T00:06:22;-0.80;99.90
20594;DHT22;10455;48.732;10.266;2023-01-29T00:11:25;-0.90;99.90
20594;DHT22;10455;48.732;10.266;2023-01-29T00:16:27;-1.00;99.90
20594;DHT22;10455;48.732;10.266;2023-01-29T00:21:29;-1.20;99.90
20594;DHT22;10455;48.732;10.266;2023-01-29T00:26:33;-1.30;99.90
20594;DHT22;10455;48.732;10.266;2023-01-29T00:31:34;-1.30;99.90
20594;DHT22;10455;48.732;10.266;2023-01-29T00:36:36;-1.30;99.90
20594;DHT22;10455;48.732;10.266;2023-01-29T00:41:39;-1.50;99.90
20594;DHT22;10455;48.732;10.266;2023-01-29T00:46:59;-1.30;99.90
20594;DHT22;10455;48.732;10.266;2023-01-29T00:52:01;-1.00;99.90
20594;DHT22;10455;48.732;10.266;2023-01-29T00:57:23;-1.20;99.90
20594;DHT22;10455;48.732;10.266;2023-01-29T01:02:26;-1.30;99.90
20594;DHT22;10455;48.732;10.266;2023-01-29T01:07:47;-1.40;99.90
20594;DHT22;10455;48.732;10.266;2023-01-29T01:12:53;-1.20;99.90
20594;DHT22;10455;48.732;10.266;2023-01-29T01:17:57;-1.30;99.90
20594;DHT22;10455;48.732;10.266;2023-01-29T01:22:59;-1.30;99.90
20594;DHT22;10455;48.732;10.266;2023-01-29T01:28:03;-1.00;99.90
20594;DHT22;10455;48.732;10.266;2023-01-29T01:33:05;-0.90;99.90
20594;DHT22;10455;48.732;10.266;2023-01-29T01:38:06;-0.70;99.90
20594;DHT22;10455;48.732;10.266;2023-01-29T01:43:10;-0.90;99.90
20594;DHT22;10455;48.732;10.266;2023-01-29T01:48:14;-0.70;99.90
20594;DHT22;10455;48.732;10.266;2023-01-29T01:53:21;-0.50;99.90
20594;DHT22;10455;48.732;10.266;2023-01-29T01:58:27;-0.60;99.90
20594;DHT22;10455;48.732;10.266;2023-01-29T02:03:32;-0.80;99.90
20594;DHT22;10455;48.732;10.266;2023-01-29T02:08:57;-0.70;99.90
20594;DHT22;10455;48.732;10.266;2023-01-29T02:14:20;-0.60;99.90
20594;DHT22;10455;48.732;10.266;2023-01-29T02:19:31;-0.60;99.90
20594;DHT22;10455;48.732;10.266;2023-01-29T02:30:16;-0.40;99.90
20594;DHT22;10455;48.732;10.266;2023-01-29T02:35:25;-0.50;99.90
20594;DHT22;10455;48.732;10.266;2023-01-29T02:40:35;-0.50;99.90
20594;DHT22;10455;48.732;10.266;2023-01-29T02:45:45;-0.50;99.90
20594;DHT22;10455;48.732;10.266;2023-01-29T02:50:54;-0.60;99.90
20594;DHT22;10455;48.732;10.266;2023-01-29T02:56:01;-0.90;99.90
20594;DHT22;10455;48.732;10.266;2023-01-29T03:01:08;-0.90;99.90
20594;DHT22;10455;48.732;10.266;2023-01-29T03:06:15;-0.80;99.90
20594;DHT22;10455;48.732;10.266;2023-01-29T03:11:20;-1.30;99.90
20594;DHT22;10455;48.732;10.266;2023-01-29T03:16:28;-1.20;99.90
20594;DHT22;10455;48.732;10.266;2023-01-29T03:21:34;-1.00;99.90
20594;DHT22;10455;48.732;10.266;2023-01-29T03:26:55;-0.80;99.90
20594;DHT22;10455;48.732;10.266;2023-01-29T03:32:19;-0.80;99.90
20594;DHT22;10455;48.732;10.266;2023-01-29T03:37:28;-0.70;99.90
20594;DHT22;10455;48.732;10.266;2023-01-29T03:42:40;-0.60;99.90
20594;DHT22;10455;48.732;10.266;2023-01-29T03:47:50;-0.70;99.90
20594;DHT22;10455;48.732;10.266;2023-01-29T03:52:59;-0.80;99.90
20594;DHT22;10455;48.732;10.266;2023-01-29T03:58:08;-0.80;99.90
20594;DHT22;10455;48.732;10.266;2023-01-29T04:03:18;-0.60;99.90
20594;DHT22;10455;48.732;10.266;2023-01-29T04:08:24;-1.30;99.90
20594;DHT22;10455;48.732;10.266;2023-01-29T04:13:30;-1.00;99.90
20594;DHT22;10455;48.732;10.266;2023-01-29T04:18:35;-0.90;99.90
20594;DHT22;10455;48.732;10.266;2023-01-29T04:23:37;-1.00;99.90
20594;DHT22;10455;48.732;10.266;2023-01-29T04:28:49;-0.80;99.90
20594;DHT22;10455;48.732;10.266;2023-01-29T04:34:03;-0.80;99.90
20594;DHT22;10455;48.732;10.266;2023-01-29T04:39:12;-1.10;99.90
20594;DHT22;10455;48.732;10.266;2023-01-29T04:44:21;-1.40;99.90
20594;DHT22;10455;48.732;10.266;2023-01-29T04:49:32;-1.70;99.90
20594;DHT22;10455;48.732;10.266;2023-01-29T04:54:43;-1.40;99.90
20594;DHT22;10455;48.732;10.266;2023-01-29T04:59:56;-1.10;99.90
20594;DHT22;10455;48.732;10.266;2023-01-29T05:05:00;-0.90;99.90
20594;DHT22;10455;48.732;10.266;2023-01-29T05:10:02;-0.70;99.90
20594;DHT22;10455;48.732;10.266;2023-01-29T05:15:10;-0.70;99.90
20594;DHT22;10455;48.732;10.266;2023-01-29T05:20:14;-0.80;99.90
20594;DHT22;10455;48.732;10.266;2023-01-29T05:25:22;-0.80;99.90
20594;DHT22;10455;48.732;10.266;2023-01-29T05:30:24;-0.90;99.90
20594;DHT22;10455;48.732;10.266;2023-01-29T05:35:28;-1.00;99.90
20594;DHT22;10455;48.732;10.266;2023-01-29T05:40:29;-1.00;99.90
20594;DHT22;10455;48.732;10.266;2023-01-29T05:45:32;-0.90;99.90
20594;DHT22;10455;48.732;10.266;2023-01-29T05:50:35;-0.80;99.90
20594;DHT22;10455;48.732;10.266;2023-01-29T05:55:37;-1.00;99.90
20594;DHT22;10455;48.732;10.266;2023-01-29T06:00:39;-1.10;99.90
20594;DHT22;10455;48.732;10.266;2023-01-29T06:05:43;-1.00;99.90
20594;DHT22;10455;48.732;10.266;2023-01-29T06:10:45;-1.00;99.90
20594;DHT22;10455;48.732;10.266;2023-01-29T06:15:47;-1.00;99.90
20594;DHT22;10455;48.732;10.266;2023-01-29T06:20:50;-0.80;99.90
20594;DHT22;10455;48.732;10.266;2023-01-29T06:25:52;-0.80;99.90
20594;DHT22;10455;48.732;10.266;2023-01-29T06:30:56;-0.80;99.90
20594;DHT22;10455;48.732;10.266;2023-01-29T06:36:00;-0.90;99.90
20594;DHT22;10455;48.732;10.266;2023-01-29T06:41:09;-0.80;99.90
20594;DHT22;10455;48.732;10.266;2023-01-29T06:46:12;-0.80;99.90
20594;DHT22;10455;48.732;10.266;2023-01-29T06:51:15;-0.90;99.90
20594;DHT22;10455;48.732;10.266;2023-01-29T06:56:17;-1.00;99.90
20594;DHT22;10455;48.732;10.266;2023-01-29T07:01:19;-1.10;99.90
20594;DHT22;10455;48.732;10.266;2023-01-29T07:06:26;-0.90;99.90
20594;DHT22;10455;48.732;10.266;2023-01-29T07:11:28;-0.80;99.90
20594;DHT22;10455;48.732;10.266;2023-01-29T07:16:30;-0.80;99.90
20594;DHT22;10455;48.732;10.266;2023-01-29T07:21:33;-0.80;99.90
20594;DHT22;10455;48.732;10.266;2023-01-29T07:26:35;-0.70;99.90
20594;DHT22;10455;48.732;10.266;2023-01-29T07:31:37;-0.50;99.90
20594;DHT22;10455;48.732;10.266;2023-01-29T07:36:41;-0.40;99.90
20594;DHT22;10455;48.732;10.266;2023-01-29T07:41:43;-0.40;99.90
20594;DHT22;10455;48.732;10.266;2023-01-29T07:46:45;-0.30;99.90
20594;DHT22;10455;48.732;10.266;2023-01-29T07:51:48;-0.10;99.90
20594;DHT22;10455;48.732;10.266;2023-01-29T07:56:50;0.20;99.90
20594;DHT22;10455;48.732;10.266;2023-01-29T08:01:52;0.30;99.90
20594;DHT22;10455;48.732;10.266;2023-01-29T08:06:55;0.50;99.90
20594;DHT22;10455;48.732;10.266;2023-01-29T08:11:57;0.80;99.90
20594;DHT22;10455;48.732;10.266;2023-01-29T08:16:59;1.10;99.90
20594;DHT22;10455;48.732;10.266;2023-01-29T08:22:02;1.00;99.90
20594;DHT22;10455;48.732;10.266;2023-01-29T08:27:04;1.00;99.90
20594;DHT22;10455;48.732;10.266;2023-01-29T08:32:08;0.60;99.90
20594;DHT22;10455;48.732;10.266;2023-01-29T08:37:12;0.30;99.90
20594;DHT22;10455;48.732;10.266;2023-01-29T08:42:13;0.40;99.90
20594;DHT22;10455;48.732;10.266;2023-01-29T08:47:15;0.30;99.90
20594;DHT22;10455;48.732;10.266;2023-01-29T08:52:18;0.40;99.90
20594;DHT22;10455;48.732;10.266;2023-01-29T08:57:20;0.40;99.90
20594;DHT22;10455;48.732;10.266;2023-01-29T09:02:22;0.80;99.90
20594;DHT22;10455;48.732;10.266;2023-01-29T09:07:25;0.80;99.90
20594;DHT22;10455;48.732;10.266;2023-01-29T09:12:27;0.70;99.90
20594;DHT22;10455;48.732;10.266;2023-01-29T09:17:29;0.80;99.90
20594;DHT22;10455;48.732;10.266;2023-01-29T09:22:32;0.70;99.90
20594;DHT22;10455;48.732;10.266;2023-01-29T09:27:34;0.50;99.90
20594;DHT22;10455;48.732;10.266;2023-01-29T09:32:36;0.90;99.90
20594;DHT22;10455;48.732;10.266;2023-01-29T09:37:39;1.10;99.90
20594;DHT22;10455;48.732;10.266;2023-01-29T09:42:45;1.30;99.90
20594;DHT22;10455;48.732;10.266;2023-01-29T09:47:50;1.60;99.90
20594;DHT22;10455;48.732;10.266;2023-01-29T09:52:56;2.10;99.90
20594;DHT22;10455;48.732;10.266;2023-01-29T09:58:04;2.30;99.90
20594;DHT22;10455;48.732;10.266;2023-01-29T10:03:22;2.50;99.90
20594;DHT22;10455;48.732;10.266;2023-01-29T10:09:03;2.80;99.90
20594;DHT22;10455;48.732;10.266;2023-01-29T10:14:15;2.10;99.90
20594;DHT22;10455;48.732;10.266;2023-01-29T10:19:46;2.30;99.90
20594;DHT22;10455;48.732;10.266;2023-01-29T10:24:53;2.00;99.90
20594;DHT22;10455;48.732;10.266;2023-01-29T10:29:58;2.40;99.90
20594;DHT22;10455;48.732;10.266;2023-01-29T10:35:02;3.10;99.90
20594;DHT22;10455;48.732;10.266;2023-01-29T10:40:18;3.80;99.90
20594;DHT22;10455;48.732;10.266;2023-01-29T10:45:27;4.20;99.90
20594;DHT22;10455;48.732;10.266;2023-01-29T10:50:43;4.30;99.90
20594;DHT22;10455;48.732;10.266;2023-01-29T10:55:57;5.00;99.90
20594;DHT22;10455;48.732;10.266;2023-01-29T11:01:01;5.20;99.90
20594;DHT22;10455;48.732;10.266;2023-01-29T11:06:11;5.10;99.90
20594;DHT22;10455;48.732;10.266;2023-01-29T11:11:18;5.50;99.90
20594;DHT22;10455;48.732;10.266;2023-01-29T11:16:21;5.50;99.90
20594;DHT22;10455;48.732;10.266;2023-01-29T11:21:24;5.40;99.90
20594;DHT22;10455;48.732;10.266;2023-01-29T11:26:28;5.00;99.90
20594;DHT22;10455;48.732;10.266;2023-01-29T11:31:35;4.70;99.90
20594;DHT22;10455;48.732;10.266;2023-01-29T11:36:39;4.10;99.90
20594;DHT22;10455;48.732;10.266;2023-01-29T11:41:48;3.90;99.90
20594;DHT22;10455;48.732;10.266;2023-01-29T11:46:51;4.60;99.90
20594;DHT22;10455;48.732;10.266;2023-01-29T11:51:54;4.70;99.90
20594;DHT22;10455;48.732;10.266;2023-01-29T11:56:58;5.00;99.90
20594;DHT22;10455;48.732;10.266;2023-01-29T12:02:13;5.60;99.90
20594;DHT22;10455;48.732;10.266;2023-01-29T12:07:19;5.80;99.90
20594;DHT22;10455;48.732;10.266;2023-01-29T12:12:36;6.40;99.90
20594;DHT22;10455;48.732;10.266;2023-01-29T12:17:42;6.20;99.90
20594;DHT22;10455;48.732;10.266;2023-01-29T12:22:49;6.10;99.90
20594;DHT22;10455;48.732;10.266;2023-01-29T12:28:01;5.90;99.90
20594;DHT22;10455;48.732;10.266;2023-01-29T12:33:11;5.80;99.90
20594;DHT22;10455;48.732;10.266;2023-01-29T12:38:18;5.50;99.90
20594;DHT22;10455;48.732;10.266;2023-01-29T12:43:28;6.30;99.90
20594;DHT22;10455;48.732;10.266;2023-01-29T12:48:33;6.40;99.90
20594;DHT22;10455;48.732;10.266;2023-01-29T12:53:40;6.40;99.90
20594;DHT22;10455;48.732;10.266;2023-01-29T12:58:47;5.60;99.90
20594;DHT22;10455;48.732;10.266;2023-01-29T13:03:52;6.60;99.90
20594;DHT22;10455;48.732;10.266;2023-01-29T13:08:58;6.00;99.90
20594;DHT22;10455;48.732;10.266;2023-01-29T13:14:07;5.10;99.90
20594;DHT22;10455;48.732;10.266;2023-01-29T13:19:19;4.30;99.90
20594;DHT22;10455;48.732;10.266;2023-01-29T13:24:24;4.40;99.90
20594;DHT22;10455;48.732;10.266;2023-01-29T13:29:30;4.90;99.90
20594;DHT22;10455;48.732;10.266;2023-01-29T13:34:35;4.30;99.90
20594;DHT22;10455;48.732;10.266;2023-01-29T13:39:44;4.30;99.90
20594;DHT22;10455;48.732;10.266;2023-01-29T13:44:49;4.80;99.90
20594;DHT22;10455;48.732;10.266;2023-01-29T13:49:55;4.90;99.90
20594;DHT22;10455;48.732;10.266;2023-01-29T13:54:59;4.50;99.90
20594;DHT22;10455;48.732;10.266;2023-01-29T14:00:04;4.90;99.90
20594;DHT22;10455;48.732;10.266;2023-01-29T14:05:37;4.70;99.90
20594;DHT22;10455;48.732;10.266;2023-01-29T14:10:41;4.20;99.90
20594;DHT22;10455;48.732;10.266;2023-01-29T14:15:45;3.80;99.90
20594;DHT22;10455;48.732;10.266;2023-01-29T14:21:19;3.80;99.90
20594;DHT22;10455;48.732;10.266;2023-01-29T14:26:29;3.90;99.90
20594;DHT22;10455;48.732;10.266;2023-01-29T14:31:39;3.50;99.90
20594;DHT22;10455;48.732;10.266;2023-01-29T14:36:44;3.20;99.90
20594;DHT22;10455;48.732;10.266;2023-01-29T14:41:48;3.00;99.90
20594;DHT22;10455;48.732;10.266;2023-01-29T14:46:52;2.80;99.90
20594;DHT22;10455;48.732;10.266;2023-01-29T14:51:55;2.70;99.90
20594;DHT22;10455;48.732;10.266;2023-01-29T14:57:02;2.60;99.90
20594;DHT22;10455;48.732;10.266;2023-01-29T15:02:15;2.10;99.90
20594;DHT22;10455;48.732;10.266;2023-01-29T15:07:26;2.00;99.90
20594;DHT22;10455;48.732;10.266;2023-01-29T15:12:34;1.90;99.90
20594;DHT22;10455;48.732;10.266;2023-01-29T15:17:45;1.80;99.90
20594;DHT22;10455;48.732;10.266;2023-01-29T15:22:49;1.70;99.90
20594;DHT22;10455;48.732;10.266;2023-01-29T15:27:52;1.60;99.90
20594;DHT22;10455;48.732;10.266;2023-01-29T15:32:56;1.40;99.90
20594;DHT22;10455;48.732;10.266;2023-01-29T15:38:01;1.20;99.90
20594;DHT22;10455;48.732;10.266;2023-01-29T15:43:18;1.00;99.90
20594;DHT22;10455;48.732;10.266;2023-01-29T15:48:26;0.70;99.90
20594;DHT22;10455;48.732;10.266;2023-01-29T15:53:34;0.30;99.90
20594;DHT22;10455;48.732;10.266;2023-01-29T15:58:37;0.10;99.90
20594;DHT22;10455;48.732;10.266;2023-01-29T16:03:41;-0.20;99.90
20594;DHT22;10455;48.732;10.266;2023-01-29T16:08:47;-0.50;99.90
20594;DHT22;10455;48.732;10.266;2023-01-29T16:13:51;-0.60;99.90
20594;DHT22;10455;48.732;10.266;2023-01-29T16:18:54;-0.80;99.90
20594;DHT22;10455;48.732;10.266;2023-01-29T16:23:58;-1.00;99.90
20594;DHT22;10455;48.732;10.266;2023-01-29T16:29:05;-1.20;99.90
20594;DHT22;10455;48.732;10.266;2023-01-29T16:34:13;-1.30;99.90
20594;DHT22;10455;48.732;10.266;2023-01-29T16:39:18;-1.50;99.90
20594;DHT22;10455;48.732;10.266;2023-01-29T16:44:36;-1.70;99.90
20594;DHT22;10455;48.732;10.266;2023-01-29T16:49:47;-1.60;99.90
20594;DHT22;10455;48.732;10.266;2023-01-29T16:54:53;-1.50;99.90
20594;DHT22;10455;48.732;10.266;2023-01-29T17:00:02;-1.50;99.90
20594;DHT22;10455;48.732;10.266;2023-01-29T17:05:13;-1.70;99.90
20594;DHT22;10455;48.732;10.266;2023-01-29T17:10:19;-1.80;99.90
20594;DHT22;10455;48.732;10.266;2023-01-29T17:15:36;-2.00;99.90
20594;DHT22;10455;48.732;10.266;2023-01-29T17:20:45;-2.10;99.90
20594;DHT22;10455;48.732;10.266;2023-01-29T17:25:47;-2.20;99.90
20594;DHT22;10455;48.732;10.266;2023-01-29T17:30:49;-2.30;99.90
20594;DHT22;10455;48.732;10.266;2023-01-29T17:35:52;-2.50;99.90
20594;DHT22;10455;48.732;10.266;2023-01-29T17:40:56;-2.60;99.90
20594;DHT22;10455;48.732;10.266;2023-01-29T17:45:59;-2.70;99.90
20594;DHT22;10455;48.732;10.266;2023-01-29T17:51:03;-2.70;99.90
20594;DHT22;10455;48.732;10.266;2023-01-29T17:56:06;-2.90;99.90
20594;DHT22;10455;48.732;10.266;2023-01-29T18:01:10;-2.90;99.90
20594;DHT22;10455;48.732;10.266;2023-01-29T18:06:19;-3.00;99.90
20594;DHT22;10455;48.732;10.266;2023-01-29T18:11:23;-3.00;99.90
20594;DHT22;10455;48.732;10.266;2023-01-29T18:16:25;-3.00;99.90
20594;DHT22;10455;48.732;10.266;2023-01-29T18:21:28;-3.10;99.90
20594;DHT22;10455;48.732;10.266;2023-01-29T18:26:30;-3.10;99.90
20594;DHT22;10455;48.732;10.266;2023-01-29T18:31:31;-3.00;99.90
20594;DHT22;10455;48.732;10.266;2023-01-29T18:36:35;-3.10;99.90
20594;DHT22;10455;48.732;10.266;2023-01-29T18:41:37;-3.00;99.90
20594;DHT22;10455;48.732;10.266;2023-01-29T18:46:38;-3.00;99.90
20594;DHT22;10455;48.732;10.266;2023-01-29T18:51:41;-2.90;99.90
20594;DHT22;10455;48.732;10.266;2023-01-29T18:56:44;-2.90;99.90
20594;DHT22;10455;48.732;10.266;2023-01-29T19:01:45;-2.90;99.90
20594;DHT22;10455;48.732;10.266;2023-01-29T19:06:49;-2.90;99.90
20594;DHT22;10455;48.732;10.266;2023-01-29T19:11:50;-2.90;99.90
20594;DHT22;10455;48.732;10.266;2023-01-29T19:16:52;-3.00;99.90
20594;DHT22;10455;48.732;10.266;2023-01-29T19:26:59;-2.90;99.90
20594;DHT22;10455;48.732;10.266;2023-01-29T19:32:01;-3.00;99.90
20594;DHT22;10455;48.732;10.266;2023-01-29T19:37:04;-3.10;99.90
20594;DHT22;10455;48.732;10.266;2023-01-29T19:42:06;-3.10;99.90
20594;DHT22;10455;48.732;10.266;2023-01-29T19:47:08;-3.10;99.90
20594;DHT22;10455;48.732;10.266;2023-01-29T19:52:11;-3.10;99.90
20594;DHT22;10455;48.732;10.266;2023-01-29T19:57:33;-3.20;99.90
20594;DHT22;10455;48.732;10.266;2023-01-29T20:02:35;-3.40;99.90
20594;DHT22;10455;48.732;10.266;2023-01-29T20:07:39;-3.30;99.90
20594;DHT22;10455;48.732;10.266;2023-01-29T20:12:42;-3.20;99.90
20594;DHT22;10455;48.732;10.266;2023-01-29T20:17:44;-3.30;99.90
20594;DHT22;10455;48.732;10.266;2023-01-29T20:22:47;-3.30;99.90
20594;DHT22;10455;48.732;10.266;2023-01-29T20:27:49;-3.30;99.90
20594;DHT22;10455;48.732;10.266;2023-01-29T20:32:51;-3.40;99.90
20594;DHT22;10455;48.732;10.266;2023-01-29T20:37:54;-3.40;99.90
20594;DHT22;10455;48.732;10.266;2023-01-29T20:42:56;-3.40;99.90
20594;DHT22;10455;48.732;10.266;2023-01-29T20:47:58;-3.40;99.90
20594;DHT22;10455;48.732;10.266;2023-01-29T20:53:01;-3.50;99.90
20594;DHT22;10455;48.732;10.266;2023-01-29T20:58:03;-3.40;99.90
20594;DHT22;10455;48.732;10.266;2023-01-29T21:03:05;-3.40;99.90
20594;DHT22;10455;48.732;10.266;2023-01-29T21:08:08;-3.40;99.90
20594;DHT22;10455;48.732;10.266;2023-01-29T21:13:11;-3.30;99.90
20594;DHT22;10455;48.732;10.266;2023-01-29T21:18:13;-3.30;99.90
20594;DHT22;10455;48.732;10.266;2023-01-29T21:23:16;-3.30;99.90
20594;DHT22;10455;48.732;10.266;2023-01-29T21:28:18;-3.40;99.90
20594;DHT22;10455;48.732;10.266;2023-01-29T21:33:20;-3.50;99.90
20594;DHT22;10455;48.732;10.266;2023-01-29T21:38:24;-3.50;99.90
20594;DHT22;10455;48.732;10.266;2023-01-29T21:43:26;-3.40;99.90
20594;DHT22;10455;48.732;10.266;2023-01-29T21:48:27;-3.50;99.90
20594;DHT22;10455;48.732;10.266;2023-01-29T21:53:31;-3.50;99.90
20594;DHT22;10455;48.732;10.266;2023-01-29T21:58:33;-3.60;99.90
20594;DHT22;10455;48.732;10.266;2023-01-29T22:03:34;-3.70;99.90
20594;DHT22;10455;48.732;10.266;2023-01-29T22:08:38;-3.80;99.90
20594;DHT22;10455;48.732;10.266;2023-01-29T22:13:39;-3.80;99.90
20594;DHT22;10455;48.732;10.266;2023-01-29T22:18:41;-3.70;99.90
20594;DHT22;10455;48.732;10.266;2023-01-29T22:23:47;-3.70;99.90
20594;DHT22;10455;48.732;10.266;2023-01-29T22:28:49;-3.60;99.90
20594;DHT22;10455;48.732;10.266;2023-01-29T22:33:50;-3.80;99.90
20594;DHT22;10455;48.732;10.266;2023-01-29T22:38:54;-3.70;99.90
20594;DHT22;10455;48.732;10.266;2023-01-29T22:43:56;-3.80;99.90
20594;DHT22;10455;48.732;10.266;2023-01-29T22:48:57;-3.70;99.90
20594;DHT22;10455;48.732;10.266;2023-01-29T22:54:01;-3.70;99.90
20594;DHT22;10455;48.732;10.266;2023-01-29T22:59:03;-3.90;99.90
20594;DHT22;10455;48.732;10.266;2023-01-29T23:04:04;-3.90;99.90
20594;DHT22;10455;48.732;10.266;2023-01-29T23:09:08;-3.90;99.90
20594;DHT22;10455;48.732;10.266;2023-01-29T23:14:09;-4.00;99.90
20594;DHT22;10455;48.732;10.266;2023-01-29T23:19:11;-4.00;99.90
20594;DHT22;10455;48.732;10.266;2023-01-29T23:24:15;-4.10;99.90
20594;DHT22;10455;48.732;10.266;2023-01-29T23:29:16;-4.20;99.90
20594;DHT22;10455;48.732;10.266;2023-01-29T23:34:18;-4.20;99.90
20594;DHT22;10455;48.732;10.266;2023-01-29T23:39:22;-4.00;99.90
20594;DHT22;10455;48.732;10.266;2023-01-29T23:44:24;-3.90;99.90
20594;DHT22;10455;48.732;10.266;2023-01-29T23:49:26;-3.80;99.90
20594;DHT22;10455;48.732;10.266;2023-01-29T23:54:29;-3.90;99.90
20594;DHT22;10455;48.732;10.266;2023-01-29T23:59:31;-3.90;99.90
